sensor_id;sensor_type;location;lat;lon;timestamp;P1;durP1;ratioP1;P2;durP2;ratioP2
48629;SDS011;34426;52.180;4.462;2023-01-20T00:00:59;16.08;;;10.15;;
48629;SDS011;34426;52.180;4.462;2023-01-20T00:03:27;16.45;;;11.68;;
48629;SDS011;34426;52.180;4.462;2023-01-20T00:05:53;15.43;;;10.52;;
48629;SDS011;34426;52.180;4.462;2023-01-20T00:08:19;20.77;;;11.43;;
48629;SDS011;34426;52.180;4.462;2023-01-20T00:10:46;18.13;;;11.18;;
48629;SDS011;34426;52.180;4.462;2023-01-20T00:13:12;16.17;;;10.80;;
48629;SDS011;34426;52.180;4.462;2023-01-20T00:15:38;13.43;;;10.73;;
48629;SDS011;34426;52.180;4.462;2023-01-20T00:18:05;16.75;;;11.95;;
48629;SDS011;34426;52.180;4.462;2023-01-20T00:20:33;17.98;;;11.52;;
48629;SDS011;34426;52.180;4.462;2023-01-20T00:22:59;16.95;;;12.13;;
48629;SDS011;34426;52.180;4.462;2023-01-20T00:25:25;20.60;;;11.63;;
48629;SDS011;34426;52.180;4.462;2023-01-20T00:27:51;18.77;;;13.05;;
48629;SDS011;34426;52.180;4.462;2023-01-20T00:30:18;17.02;;;12.63;;
48629;SDS011;34426;52.180;4.462;2023-01-20T00:32:44;15.90;;;12.77;;
48629;SDS011;34426;52.180;4.462;2023-01-20T00:35:10;17.73;;;13.57;;
48629;SDS011;34426;52.180;4.462;2023-01-20T00:37:38;19.65;;;14.45;;
48629;SDS011;34426;52.180;4.462;2023-01-20T00:40:05;25.13;;;16.38;;
48629;SDS011;34426;52.180;4.462;2023-01-20T00:42:31;23.95;;;17.23;;
48629;SDS011;34426;52.180;4.462;2023-01-20T00:44:58;33.17;;;22.58;;
48629;SDS011;34426;52.180;4.462;2023-01-20T00:47:24;36.58;;;23.67;;
48629;SDS011;34426;52.180;4.462;2023-01-20T00:49:50;42.40;;;27.50;;
48629;SDS011;34426;52.180;4.462;2023-01-20T00:52:16;37.25;;;25.77;;
48629;SDS011;34426;52.180;4.462;2023-01-20T00:54:44;45.45;;;29.48;;
48629;SDS011;34426;52.180;4.462;2023-01-20T00:57:10;47.25;;;31.63;;
48629;SDS011;34426;52.180;4.462;2023-01-20T00:59:37;44.10;;;30.98;;
48629;SDS011;34426;52.180;4.462;2023-01-20T01:02:03;45.20;;;31.98;;
48629;SDS011;34426;52.180;4.462;2023-01-20T01:04:29;53.50;;;32.92;;
48629;SDS011;34426;52.180;4.462;2023-01-20T01:06:55;48.13;;;32.67;;
48629;SDS011;34426;52.180;4.462;2023-01-20T01:09:22;47.55;;;33.78;;
48629;SDS011;34426;52.180;4.462;2023-01-20T01:11:50;54.25;;;34.00;;
48629;SDS011;34426;52.180;4.462;2023-01-20T01:14:16;57.45;;;35.35;;
48629;SDS011;34426;52.180;4.462;2023-01-20T01:16:42;51.58;;;34.10;;
48629;SDS011;34426;52.180;4.462;2023-01-20T01:19:08;48.47;;;33.15;;
48629;SDS011;34426;52.180;4.462;2023-01-20T01:21:34;50.42;;;33.50;;
48629;SDS011;34426;52.180;4.462;2023-01-20T01:24:00;46.60;;;33.95;;
48629;SDS011;34426;52.180;4.462;2023-01-20T01:26:27;48.67;;;31.13;;
48629;SDS011;34426;52.180;4.462;2023-01-20T01:28:55;45.47;;;32.10;;
48629;SDS011;34426;52.180;4.462;2023-01-20T01:31:21;54.53;;;35.00;;
48629;SDS011;34426;52.180;4.462;2023-01-20T01:33:47;49.20;;;34.15;;
48629;SDS011;34426;52.180;4.462;2023-01-20T01:36:15;55.42;;;36.83;;
48629;SDS011;34426;52.180;4.462;2023-01-20T01:38:42;57.78;;;34.90;;
48629;SDS011;34426;52.180;4.462;2023-01-20T01:41:09;58.03;;;34.58;;
48629;SDS011;34426;52.180;4.462;2023-01-20T01:43:36;49.03;;;33.08;;
48629;SDS011;34426;52.180;4.462;2023-01-20T01:46:04;53.65;;;35.28;;
48629;SDS011;34426;52.180;4.462;2023-01-20T01:48:31;56.35;;;34.05;;
48629;SDS011;34426;52.180;4.462;2023-01-20T01:51:01;56.70;;;35.17;;
48629;SDS011;34426;52.180;4.462;2023-01-20T01:53:28;55.67;;;34.65;;
48629;SDS011;34426;52.180;4.462;2023-01-20T01:55:55;54.63;;;34.90;;
48629;SDS011;34426;52.180;4.462;2023-01-20T01:58:23;62.03;;;34.95;;
48629;SDS011;34426;52.180;4.462;2023-01-20T02:00:52;53.67;;;34.25;;
48629;SDS011;34426;52.180;4.462;2023-01-20T02:03:20;62.08;;;35.58;;
48629;SDS011;34426;52.180;4.462;2023-01-20T02:05:46;57.40;;;34.55;;
48629;SDS011;34426;52.180;4.462;2023-01-20T02:08:13;57.80;;;35.35;;
48629;SDS011;34426;52.180;4.462;2023-01-20T02:10:39;60.88;;;33.38;;
48629;SDS011;34426;52.180;4.462;2023-01-20T02:13:06;57.28;;;34.10;;
48629;SDS011;34426;52.180;4.462;2023-01-20T02:15:33;57.78;;;34.90;;
48629;SDS011;34426;52.180;4.462;2023-01-20T02:18:08;62.30;;;33.53;;
48629;SDS011;34426;52.180;4.462;2023-01-20T02:20:45;60.28;;;34.28;;
48629;SDS011;34426;52.180;4.462;2023-01-20T02:23:16;58.28;;;32.85;;
48629;SDS011;34426;52.180;4.462;2023-01-20T02:25:55;60.75;;;33.50;;
48629;SDS011;34426;52.180;4.462;2023-01-20T02:33:56;56.03;;;32.40;;
48629;SDS011;34426;52.180;4.462;2023-01-20T02:36:25;56.28;;;32.47;;
48629;SDS011;34426;52.180;4.462;2023-01-20T02:38:54;53.95;;;32.80;;
48629;SDS011;34426;52.180;4.462;2023-01-20T02:41:22;61.10;;;33.00;;
48629;SDS011;34426;52.180;4.462;2023-01-20T02:43:50;60.10;;;34.47;;
48629;SDS011;34426;52.180;4.462;2023-01-20T02:46:19;57.08;;;30.95;;
48629;SDS011;34426;52.180;4.462;2023-01-20T02:48:49;57.33;;;32.30;;
48629;SDS011;34426;52.180;4.462;2023-01-20T02:51:18;54.72;;;32.72;;
48629;SDS011;34426;52.180;4.462;2023-01-20T02:53:47;58.08;;;31.90;;
48629;SDS011;34426;52.180;4.462;2023-01-20T02:56:14;50.70;;;30.95;;
48629;SDS011;34426;52.180;4.462;2023-01-20T02:58:42;58.08;;;30.55;;
48629;SDS011;34426;52.180;4.462;2023-01-20T03:01:11;55.33;;;30.95;;
48629;SDS011;34426;52.180;4.462;2023-01-20T03:03:38;51.15;;;28.67;;
48629;SDS011;34426;52.180;4.462;2023-01-20T03:06:07;46.42;;;27.45;;
48629;SDS011;34426;52.180;4.462;2023-01-20T03:08:38;47.50;;;26.30;;
48629;SDS011;34426;52.180;4.462;2023-01-20T03:11:05;43.05;;;26.17;;
48629;SDS011;34426;52.180;4.462;2023-01-20T03:13:33;51.25;;;26.65;;
48629;SDS011;34426;52.180;4.462;2023-01-20T03:16:01;43.45;;;26.35;;
48629;SDS011;34426;52.180;4.462;2023-01-20T03:18:27;41.20;;;24.17;;
48629;SDS011;34426;52.180;4.462;2023-01-20T03:20:54;39.78;;;23.67;;
48629;SDS011;34426;52.180;4.462;2023-01-20T03:23:20;43.97;;;22.98;;
48629;SDS011;34426;52.180;4.462;2023-01-20T03:25:48;40.55;;;22.38;;
48629;SDS011;34426;52.180;4.462;2023-01-20T03:28:15;37.03;;;22.17;;
48629;SDS011;34426;52.180;4.462;2023-01-20T03:30:41;41.38;;;21.92;;
48629;SDS011;34426;52.180;4.462;2023-01-20T03:33:07;36.92;;;21.02;;
48629;SDS011;34426;52.180;4.462;2023-01-20T03:35:34;45.03;;;22.02;;
48629;SDS011;34426;52.180;4.462;2023-01-20T03:38:00;34.05;;;20.10;;
48629;SDS011;34426;52.180;4.462;2023-01-20T03:40:28;31.17;;;20.33;;
48629;SDS011;34426;52.180;4.462;2023-01-20T03:42:58;39.00;;;20.13;;
48629;SDS011;34426;52.180;4.462;2023-01-20T03:45:28;48.03;;;20.42;;
48629;SDS011;34426;52.180;4.462;2023-01-20T03:47:57;35.70;;;21.40;;
48629;SDS011;34426;52.180;4.462;2023-01-20T03:50:30;30.48;;;19.83;;
48629;SDS011;34426;52.180;4.462;2023-01-20T03:52:58;36.65;;;20.42;;
48629;SDS011;34426;52.180;4.462;2023-01-20T03:55:25;37.05;;;19.83;;
48629;SDS011;34426;52.180;4.462;2023-01-20T03:57:53;29.25;;;19.13;;
48629;SDS011;34426;52.180;4.462;2023-01-20T04:00:23;31.38;;;18.80;;
48629;SDS011;34426;52.180;4.462;2023-01-20T04:02:50;33.55;;;18.33;;
48629;SDS011;34426;52.180;4.462;2023-01-20T04:05:17;34.58;;;19.02;;
48629;SDS011;34426;52.180;4.462;2023-01-20T04:07:44;28.45;;;17.77;;
48629;SDS011;34426;52.180;4.462;2023-01-20T04:10:11;31.90;;;18.38;;
48629;SDS011;34426;52.180;4.462;2023-01-20T04:12:39;36.47;;;18.48;;
48629;SDS011;34426;52.180;4.462;2023-01-20T04:15:06;32.53;;;19.55;;
48629;SDS011;34426;52.180;4.462;2023-01-20T04:17:34;26.25;;;17.80;;
48629;SDS011;34426;52.180;4.462;2023-01-20T04:20:02;27.33;;;17.88;;
48629;SDS011;34426;52.180;4.462;2023-01-20T04:22:30;31.35;;;16.70;;
48629;SDS011;34426;52.180;4.462;2023-01-20T04:25:00;28.65;;;17.10;;
48629;SDS011;34426;52.180;4.462;2023-01-20T04:27:27;32.70;;;18.65;;
48629;SDS011;34426;52.180;4.462;2023-01-20T04:29:54;28.00;;;18.15;;
48629;SDS011;34426;52.180;4.462;2023-01-20T04:32:20;33.88;;;19.67;;
48629;SDS011;34426;52.180;4.462;2023-01-20T04:34:48;35.30;;;20.77;;
48629;SDS011;34426;52.180;4.462;2023-01-20T04:37:14;42.20;;;21.67;;
48629;SDS011;34426;52.180;4.462;2023-01-20T04:39:41;38.90;;;21.50;;
48629;SDS011;34426;52.180;4.462;2023-01-20T04:42:07;38.78;;;21.77;;
48629;SDS011;34426;52.180;4.462;2023-01-20T04:44:34;37.47;;;20.65;;
48629;SDS011;34426;52.180;4.462;2023-01-20T04:47:00;37.88;;;22.70;;
48629;SDS011;34426;52.180;4.462;2023-01-20T04:49:26;39.95;;;22.77;;
48629;SDS011;34426;52.180;4.462;2023-01-20T04:51:54;38.85;;;23.20;;
48629;SDS011;34426;52.180;4.462;2023-01-20T04:54:20;46.10;;;25.75;;
48629;SDS011;34426;52.180;4.462;2023-01-20T04:56:47;48.20;;;25.30;;
48629;SDS011;34426;52.180;4.462;2023-01-20T04:59:13;41.85;;;23.80;;
48629;SDS011;34426;52.180;4.462;2023-01-20T05:01:39;45.33;;;24.48;;
48629;SDS011;34426;52.180;4.462;2023-01-20T05:04:06;47.05;;;24.40;;
48629;SDS011;34426;52.180;4.462;2023-01-20T05:06:32;43.17;;;25.08;;
48629;SDS011;34426;52.180;4.462;2023-01-20T05:09:00;48.00;;;25.73;;
48629;SDS011;34426;52.180;4.462;2023-01-20T05:11:26;45.83;;;24.85;;
48629;SDS011;34426;52.180;4.462;2023-01-20T05:13:52;37.92;;;22.63;;
48629;SDS011;34426;52.180;4.462;2023-01-20T05:16:19;39.40;;;23.52;;
48629;SDS011;34426;52.180;4.462;2023-01-20T05:18:45;42.10;;;22.63;;
48629;SDS011;34426;52.180;4.462;2023-01-20T05:21:11;38.97;;;22.85;;
48629;SDS011;34426;52.180;4.462;2023-01-20T05:23:38;36.08;;;21.73;;
48629;SDS011;34426;52.180;4.462;2023-01-20T05:26:06;41.42;;;21.80;;
48629;SDS011;34426;52.180;4.462;2023-01-20T05:28:32;44.83;;;22.02;;
48629;SDS011;34426;52.180;4.462;2023-01-20T05:30:58;43.47;;;23.30;;
48629;SDS011;34426;52.180;4.462;2023-01-20T05:33:25;38.72;;;22.48;;
48629;SDS011;34426;52.180;4.462;2023-01-20T05:35:51;41.88;;;23.17;;
48629;SDS011;34426;52.180;4.462;2023-01-20T05:38:17;36.40;;;20.15;;
48629;SDS011;34426;52.180;4.462;2023-01-20T05:40:43;37.15;;;20.42;;
48629;SDS011;34426;52.180;4.462;2023-01-20T05:43:11;39.50;;;20.92;;
48629;SDS011;34426;52.180;4.462;2023-01-20T05:45:38;38.17;;;20.92;;
48629;SDS011;34426;52.180;4.462;2023-01-20T05:48:04;38.03;;;19.70;;
48629;SDS011;34426;52.180;4.462;2023-01-20T05:50:30;34.25;;;18.23;;
48629;SDS011;34426;52.180;4.462;2023-01-20T05:52:56;36.83;;;20.10;;
48629;SDS011;34426;52.180;4.462;2023-01-20T05:55:23;40.65;;;21.70;;
48629;SDS011;34426;52.180;4.462;2023-01-20T05:57:49;36.20;;;21.80;;
48629;SDS011;34426;52.180;4.462;2023-01-20T06:00:17;44.97;;;22.55;;
48629;SDS011;34426;52.180;4.462;2023-01-20T06:02:44;50.75;;;23.23;;
48629;SDS011;34426;52.180;4.462;2023-01-20T06:05:10;47.03;;;24.33;;
48629;SDS011;34426;52.180;4.462;2023-01-20T06:07:36;43.13;;;24.00;;
48629;SDS011;34426;52.180;4.462;2023-01-20T06:10:02;41.15;;;22.73;;
48629;SDS011;34426;52.180;4.462;2023-01-20T06:12:29;40.15;;;22.90;;
48629;SDS011;34426;52.180;4.462;2023-01-20T06:14:55;39.35;;;21.63;;
48629;SDS011;34426;52.180;4.462;2023-01-20T06:17:23;37.95;;;21.42;;
48629;SDS011;34426;52.180;4.462;2023-01-20T06:19:49;37.65;;;21.67;;
48629;SDS011;34426;52.180;4.462;2023-01-20T06:22:15;40.20;;;22.40;;
48629;SDS011;34426;52.180;4.462;2023-01-20T06:24:42;38.03;;;20.85;;
48629;SDS011;34426;52.180;4.462;2023-01-20T06:27:08;41.25;;;21.85;;
48629;SDS011;34426;52.180;4.462;2023-01-20T06:29:34;40.45;;;21.73;;
48629;SDS011;34426;52.180;4.462;2023-01-20T06:32:01;41.28;;;22.48;;
48629;SDS011;34426;52.180;4.462;2023-01-20T06:34:29;40.30;;;23.48;;
48629;SDS011;34426;52.180;4.462;2023-01-20T06:36:56;42.97;;;23.15;;
48629;SDS011;34426;52.180;4.462;2023-01-20T06:39:22;38.30;;;21.98;;
48629;SDS011;34426;52.180;4.462;2023-01-20T06:41:48;33.65;;;20.75;;
48629;SDS011;34426;52.180;4.462;2023-01-20T06:44:15;36.45;;;21.05;;
48629;SDS011;34426;52.180;4.462;2023-01-20T06:46:41;37.05;;;21.48;;
48629;SDS011;34426;52.180;4.462;2023-01-20T06:49:07;39.83;;;22.35;;
48629;SDS011;34426;52.180;4.462;2023-01-20T06:51:35;38.72;;;21.70;;
48629;SDS011;34426;52.180;4.462;2023-01-20T06:54:01;39.35;;;19.83;;
48629;SDS011;34426;52.180;4.462;2023-01-20T06:56:27;32.80;;;20.83;;
48629;SDS011;34426;52.180;4.462;2023-01-20T06:58:54;36.78;;;21.33;;
48629;SDS011;34426;52.180;4.462;2023-01-20T07:01:21;37.33;;;21.85;;
48629;SDS011;34426;52.180;4.462;2023-01-20T07:03:47;36.45;;;21.00;;
48629;SDS011;34426;52.180;4.462;2023-01-20T07:06:15;38.28;;;21.45;;
48629;SDS011;34426;52.180;4.462;2023-01-20T07:08:43;37.92;;;22.25;;
48629;SDS011;34426;52.180;4.462;2023-01-20T07:11:09;42.63;;;22.15;;
48629;SDS011;34426;52.180;4.462;2023-01-20T07:13:36;37.22;;;21.02;;
48629;SDS011;34426;52.180;4.462;2023-01-20T07:16:02;39.08;;;21.00;;
48629;SDS011;34426;52.180;4.462;2023-01-20T07:18:28;36.75;;;21.90;;
48629;SDS011;34426;52.180;4.462;2023-01-20T07:20:55;35.40;;;21.33;;
48629;SDS011;34426;52.180;4.462;2023-01-20T07:23:36;44.38;;;23.45;;
48629;SDS011;34426;52.180;4.462;2023-01-20T07:26:04;40.75;;;22.95;;
48629;SDS011;34426;52.180;4.462;2023-01-20T07:28:31;37.63;;;22.42;;
48629;SDS011;34426;52.180;4.462;2023-01-20T07:31:01;43.05;;;23.92;;
48629;SDS011;34426;52.180;4.462;2023-01-20T07:33:28;40.42;;;24.35;;
48629;SDS011;34426;52.180;4.462;2023-01-20T07:35:54;44.00;;;23.27;;
48629;SDS011;34426;52.180;4.462;2023-01-20T07:38:20;44.45;;;24.88;;
48629;SDS011;34426;52.180;4.462;2023-01-20T07:40:46;39.28;;;23.27;;
48629;SDS011;34426;52.180;4.462;2023-01-20T07:43:14;43.72;;;23.55;;
48629;SDS011;34426;52.180;4.462;2023-01-20T07:45:41;38.45;;;22.38;;
48629;SDS011;34426;52.180;4.462;2023-01-20T07:48:07;34.63;;;22.17;;
48629;SDS011;34426;52.180;4.462;2023-01-20T07:50:34;43.70;;;23.38;;
48629;SDS011;34426;52.180;4.462;2023-01-20T07:53:00;41.33;;;22.50;;
48629;SDS011;34426;52.180;4.462;2023-01-20T07:55:26;37.63;;;21.23;;
48629;SDS011;34426;52.180;4.462;2023-01-20T07:57:53;38.25;;;23.65;;
48629;SDS011;34426;52.180;4.462;2023-01-20T08:00:21;34.92;;;20.85;;
48629;SDS011;34426;52.180;4.462;2023-01-20T08:02:47;31.65;;;20.95;;
48629;SDS011;34426;52.180;4.462;2023-01-20T08:05:14;34.63;;;19.90;;
48629;SDS011;34426;52.180;4.462;2023-01-20T08:07:40;33.85;;;21.08;;
48629;SDS011;34426;52.180;4.462;2023-01-20T08:10:06;36.03;;;20.35;;
48629;SDS011;34426;52.180;4.462;2023-01-20T08:12:33;30.90;;;19.38;;
48629;SDS011;34426;52.180;4.462;2023-01-20T08:14:59;35.20;;;19.35;;
48629;SDS011;34426;52.180;4.462;2023-01-20T08:17:27;38.42;;;22.00;;
48629;SDS011;34426;52.180;4.462;2023-01-20T08:19:53;40.22;;;21.92;;
48629;SDS011;34426;52.180;4.462;2023-01-20T08:22:19;40.90;;;20.42;;
48629;SDS011;34426;52.180;4.462;2023-01-20T08:24:46;34.42;;;19.08;;
48629;SDS011;34426;52.180;4.462;2023-01-20T08:27:12;34.88;;;19.35;;
48629;SDS011;34426;52.180;4.462;2023-01-20T08:29:38;31.52;;;17.70;;
48629;SDS011;34426;52.180;4.462;2023-01-20T08:32:04;30.40;;;18.73;;
48629;SDS011;34426;52.180;4.462;2023-01-20T08:34:32;28.20;;;17.35;;
48629;SDS011;34426;52.180;4.462;2023-01-20T08:36:58;26.67;;;16.08;;
48629;SDS011;34426;52.180;4.462;2023-01-20T08:39:24;25.60;;;17.10;;
48629;SDS011;34426;52.180;4.462;2023-01-20T08:41:51;24.95;;;16.23;;
48629;SDS011;34426;52.180;4.462;2023-01-20T08:44:17;25.35;;;16.98;;
48629;SDS011;34426;52.180;4.462;2023-01-20T08:46:43;23.13;;;14.70;;
48629;SDS011;34426;52.180;4.462;2023-01-20T08:49:10;22.58;;;13.82;;
48629;SDS011;34426;52.180;4.462;2023-01-20T08:51:39;20.85;;;13.23;;
48629;SDS011;34426;52.180;4.462;2023-01-20T08:54:05;21.45;;;13.88;;
48629;SDS011;34426;52.180;4.462;2023-01-20T08:56:31;19.60;;;12.95;;
48629;SDS011;34426;52.180;4.462;2023-01-20T08:58:58;20.10;;;14.07;;
48629;SDS011;34426;52.180;4.462;2023-01-20T09:01:26;20.88;;;14.07;;
48629;SDS011;34426;52.180;4.462;2023-01-20T09:03:53;25.02;;;15.25;;
48629;SDS011;34426;52.180;4.462;2023-01-20T09:06:19;22.92;;;15.60;;
48629;SDS011;34426;52.180;4.462;2023-01-20T09:08:47;25.50;;;15.50;;
48629;SDS011;34426;52.180;4.462;2023-01-20T09:11:14;21.70;;;15.57;;
48629;SDS011;34426;52.180;4.462;2023-01-20T09:13:40;24.77;;;14.90;;
48629;SDS011;34426;52.180;4.462;2023-01-20T09:16:07;23.52;;;15.10;;
48629;SDS011;34426;52.180;4.462;2023-01-20T09:18:34;18.92;;;13.77;;
48629;SDS011;34426;52.180;4.462;2023-01-20T09:21:00;26.58;;;15.32;;
48629;SDS011;34426;52.180;4.462;2023-01-20T09:23:27;23.40;;;16.70;;
48629;SDS011;34426;52.180;4.462;2023-01-20T09:25:57;25.50;;;16.17;;
48629;SDS011;34426;52.180;4.462;2023-01-20T09:28:23;21.50;;;15.13;;
48629;SDS011;34426;52.180;4.462;2023-01-20T09:30:50;23.15;;;15.13;;
48629;SDS011;34426;52.180;4.462;2023-01-20T09:33:22;21.00;;;15.02;;
48629;SDS011;34426;52.180;4.462;2023-01-20T09:35:52;21.40;;;14.65;;
48629;SDS011;34426;52.180;4.462;2023-01-20T09:38:19;19.88;;;14.73;;
48629;SDS011;34426;52.180;4.462;2023-01-20T09:40:47;19.98;;;14.70;;
48629;SDS011;34426;52.180;4.462;2023-01-20T09:43:20;20.77;;;14.95;;
48629;SDS011;34426;52.180;4.462;2023-01-20T09:45:52;21.15;;;15.82;;
48629;SDS011;34426;52.180;4.462;2023-01-20T09:48:21;21.67;;;15.50;;
48629;SDS011;34426;52.180;4.462;2023-01-20T09:50:51;21.40;;;15.95;;
48629;SDS011;34426;52.180;4.462;2023-01-20T09:53:32;21.38;;;16.42;;
48629;SDS011;34426;52.180;4.462;2023-01-20T09:55:59;25.05;;;18.15;;
48629;SDS011;34426;52.180;4.462;2023-01-20T09:58:29;22.58;;;17.80;;
48629;SDS011;34426;52.180;4.462;2023-01-20T10:00:59;23.83;;;18.27;;
48629;SDS011;34426;52.180;4.462;2023-01-20T10:03:29;24.85;;;17.92;;
48629;SDS011;34426;52.180;4.462;2023-01-20T10:05:58;23.27;;;18.15;;
48629;SDS011;34426;52.180;4.462;2023-01-20T10:08:27;25.35;;;18.83;;
48629;SDS011;34426;52.180;4.462;2023-01-20T10:10:55;23.02;;;18.30;;
48629;SDS011;34426;52.180;4.462;2023-01-20T10:13:23;25.67;;;18.17;;
48629;SDS011;34426;52.180;4.462;2023-01-20T10:15:52;27.67;;;19.92;;
48629;SDS011;34426;52.180;4.462;2023-01-20T10:18:20;25.90;;;19.80;;
48629;SDS011;34426;52.180;4.462;2023-01-20T10:20:49;25.23;;;19.20;;
48629;SDS011;34426;52.180;4.462;2023-01-20T10:23:16;24.65;;;17.77;;
48629;SDS011;34426;52.180;4.462;2023-01-20T10:25:44;24.75;;;18.33;;
48629;SDS011;34426;52.180;4.462;2023-01-20T10:28:13;28.50;;;20.40;;
48629;SDS011;34426;52.180;4.462;2023-01-20T10:30:39;27.48;;;21.15;;
48629;SDS011;34426;52.180;4.462;2023-01-20T10:33:09;29.60;;;20.40;;
48629;SDS011;34426;52.180;4.462;2023-01-20T10:35:36;26.30;;;18.88;;
48629;SDS011;34426;52.180;4.462;2023-01-20T10:38:05;33.67;;;20.58;;
48629;SDS011;34426;52.180;4.462;2023-01-20T10:40:33;26.10;;;19.70;;
48629;SDS011;34426;52.180;4.462;2023-01-20T10:43:05;29.27;;;21.15;;
48629;SDS011;34426;52.180;4.462;2023-01-20T10:45:37;26.40;;;20.75;;
48629;SDS011;34426;52.180;4.462;2023-01-20T10:48:12;32.53;;;21.77;;
48629;SDS011;34426;52.180;4.462;2023-01-20T10:50:44;28.35;;;21.48;;
48629;SDS011;34426;52.180;4.462;2023-01-20T10:53:30;29.73;;;21.05;;
48629;SDS011;34426;52.180;4.462;2023-01-20T10:56:00;34.20;;;23.27;;
48629;SDS011;34426;52.180;4.462;2023-01-20T10:58:27;29.05;;;21.20;;
48629;SDS011;34426;52.180;4.462;2023-01-20T11:00:55;32.90;;;22.52;;
48629;SDS011;34426;52.180;4.462;2023-01-20T11:03:24;28.60;;;16.23;;
48629;SDS011;34426;52.180;4.462;2023-01-20T11:05:50;31.30;;;19.20;;
48629;SDS011;34426;52.180;4.462;2023-01-20T11:08:17;27.63;;;18.77;;
48629;SDS011;34426;52.180;4.462;2023-01-20T11:10:44;35.25;;;19.75;;
48629;SDS011;34426;52.180;4.462;2023-01-20T11:13:12;25.98;;;18.85;;
48629;SDS011;34426;52.180;4.462;2023-01-20T11:15:39;28.30;;;19.27;;
48629;SDS011;34426;52.180;4.462;2023-01-20T11:18:19;29.95;;;17.42;;
48629;SDS011;34426;52.180;4.462;2023-01-20T11:20:48;24.83;;;15.43;;
48629;SDS011;34426;52.180;4.462;2023-01-20T11:23:17;30.65;;;18.58;;
48629;SDS011;34426;52.180;4.462;2023-01-20T11:25:46;23.63;;;10.40;;
48629;SDS011;34426;52.180;4.462;2023-01-20T11:28:18;10.57;;;3.95;;
48629;SDS011;34426;52.180;4.462;2023-01-20T11:30:48;7.05;;;1.92;;
48629;SDS011;34426;52.180;4.462;2023-01-20T11:33:16;11.98;;;1.98;;
48629;SDS011;34426;52.180;4.462;2023-01-20T11:35:57;9.35;;;1.60;;
48629;SDS011;34426;52.180;4.462;2023-01-20T11:38:24;10.07;;;1.10;;
48629;SDS011;34426;52.180;4.462;2023-01-20T11:40:51;15.38;;;3.83;;
48629;SDS011;34426;52.180;4.462;2023-01-20T11:43:26;14.82;;;1.98;;
48629;SDS011;34426;52.180;4.462;2023-01-20T11:45:52;9.05;;;1.27;;
48629;SDS011;34426;52.180;4.462;2023-01-20T11:48:34;6.43;;;1.67;;
48629;SDS011;34426;52.180;4.462;2023-01-20T11:51:02;7.63;;;1.50;;
48629;SDS011;34426;52.180;4.462;2023-01-20T11:53:29;5.82;;;1.00;;
48629;SDS011;34426;52.180;4.462;2023-01-20T11:55:55;8.38;;;1.27;;
48629;SDS011;34426;52.180;4.462;2023-01-20T11:58:22;10.55;;;1.27;;
48629;SDS011;34426;52.180;4.462;2023-01-20T12:00:50;11.75;;;2.03;;
48629;SDS011;34426;52.180;4.462;2023-01-20T12:06:06;14.00;;;2.30;;
48629;SDS011;34426;52.180;4.462;2023-01-20T12:08:39;10.35;;;2.03;;
48629;SDS011;34426;52.180;4.462;2023-01-20T12:11:08;8.10;;;2.08;;
48629;SDS011;34426;52.180;4.462;2023-01-20T12:13:37;9.60;;;2.92;;
48629;SDS011;34426;52.180;4.462;2023-01-20T12:16:04;8.23;;;2.20;;
48629;SDS011;34426;52.180;4.462;2023-01-20T12:18:32;7.78;;;1.30;;
48629;SDS011;34426;52.180;4.462;2023-01-20T12:21:00;12.75;;;2.22;;
48629;SDS011;34426;52.180;4.462;2023-01-20T12:23:31;5.95;;;1.70;;
48629;SDS011;34426;52.180;4.462;2023-01-20T12:25:59;9.00;;;2.53;;
48629;SDS011;34426;52.180;4.462;2023-01-20T12:28:27;8.43;;;2.60;;
48629;SDS011;34426;52.180;4.462;2023-01-20T12:30:57;9.10;;;3.85;;
48629;SDS011;34426;52.180;4.462;2023-01-20T12:33:24;12.85;;;5.55;;
48629;SDS011;34426;52.180;4.462;2023-01-20T12:38:46;18.33;;;7.40;;
48629;SDS011;34426;52.180;4.462;2023-01-20T12:41:20;13.25;;;6.40;;
48629;SDS011;34426;52.180;4.462;2023-01-20T12:43:55;12.60;;;7.70;;
48629;SDS011;34426;52.180;4.462;2023-01-20T12:46:28;16.23;;;8.52;;
48629;SDS011;34426;52.180;4.462;2023-01-20T12:51:40;15.93;;;7.13;;
48629;SDS011;34426;52.180;4.462;2023-01-20T12:54:21;18.27;;;8.70;;
48629;SDS011;34426;52.180;4.462;2023-01-20T12:56:50;15.30;;;7.88;;
48629;SDS011;34426;52.180;4.462;2023-01-20T12:59:22;17.50;;;8.52;;
48629;SDS011;34426;52.180;4.462;2023-01-20T13:01:53;16.02;;;9.20;;
48629;SDS011;34426;52.180;4.462;2023-01-20T13:07:05;19.55;;;9.25;;
48629;SDS011;34426;52.180;4.462;2023-01-20T13:09:39;23.58;;;10.27;;
48629;SDS011;34426;52.180;4.462;2023-01-20T13:12:10;22.67;;;10.68;;
48629;SDS011;34426;52.180;4.462;2023-01-20T13:14:37;16.40;;;10.13;;
48629;SDS011;34426;52.180;4.462;2023-01-20T13:17:06;22.17;;;11.23;;
48629;SDS011;34426;52.180;4.462;2023-01-20T13:19:37;19.98;;;11.00;;
48629;SDS011;34426;52.180;4.462;2023-01-20T13:22:07;24.52;;;11.52;;
48629;SDS011;34426;52.180;4.462;2023-01-20T13:24:34;15.70;;;11.05;;
48629;SDS011;34426;52.180;4.462;2023-01-20T13:27:02;15.77;;;11.35;;
48629;SDS011;34426;52.180;4.462;2023-01-20T13:34:58;17.95;;;11.57;;
48629;SDS011;34426;52.180;4.462;2023-01-20T13:37:26;18.50;;;11.23;;
48629;SDS011;34426;52.180;4.462;2023-01-20T13:39:52;19.38;;;11.90;;
48629;SDS011;34426;52.180;4.462;2023-01-20T13:42:45;21.20;;;15.80;;
48629;SDS011;34426;52.180;4.462;2023-01-20T13:45:16;17.92;;;14.30;;
48629;SDS011;34426;52.180;4.462;2023-01-20T13:47:49;19.42;;;14.68;;
48629;SDS011;34426;52.180;4.462;2023-01-20T13:50:22;21.80;;;12.35;;
48629;SDS011;34426;52.180;4.462;2023-01-20T13:53:02;17.25;;;13.20;;
48629;SDS011;34426;52.180;4.462;2023-01-20T13:55:28;21.05;;;13.93;;
48629;SDS011;34426;52.180;4.462;2023-01-20T13:57:57;18.92;;;13.43;;
48629;SDS011;34426;52.180;4.462;2023-01-20T14:00:23;23.30;;;14.38;;
48629;SDS011;34426;52.180;4.462;2023-01-20T14:02:49;20.33;;;13.13;;
48629;SDS011;34426;52.180;4.462;2023-01-20T14:05:20;27.60;;;13.98;;
48629;SDS011;34426;52.180;4.462;2023-01-20T14:07:46;17.80;;;13.43;;
48629;SDS011;34426;52.180;4.462;2023-01-20T14:10:12;17.52;;;12.77;;
48629;SDS011;34426;52.180;4.462;2023-01-20T14:12:39;16.42;;;12.45;;
48629;SDS011;34426;52.180;4.462;2023-01-20T14:17:53;18.80;;;13.27;;
48629;SDS011;34426;52.180;4.462;2023-01-20T14:20:19;21.08;;;12.52;;
48629;SDS011;34426;52.180;4.462;2023-01-20T14:22:47;16.40;;;12.77;;
48629;SDS011;34426;52.180;4.462;2023-01-20T14:25:18;15.95;;;13.43;;
48629;SDS011;34426;52.180;4.462;2023-01-20T14:27:44;16.52;;;12.38;;
48629;SDS011;34426;52.180;4.462;2023-01-20T14:30:14;16.73;;;11.60;;
48629;SDS011;34426;52.180;4.462;2023-01-20T14:32:41;16.25;;;11.60;;
48629;SDS011;34426;52.180;4.462;2023-01-20T14:35:13;16.85;;;12.80;;
48629;SDS011;34426;52.180;4.462;2023-01-20T14:37:40;15.43;;;12.88;;
48629;SDS011;34426;52.180;4.462;2023-01-20T14:40:11;16.45;;;12.45;;
48629;SDS011;34426;52.180;4.462;2023-01-20T14:42:40;15.80;;;12.57;;
48629;SDS011;34426;52.180;4.462;2023-01-20T14:45:15;17.25;;;12.63;;
48629;SDS011;34426;52.180;4.462;2023-01-20T14:47:42;16.83;;;12.13;;
48629;SDS011;34426;52.180;4.462;2023-01-20T14:50:12;16.08;;;12.40;;
48629;SDS011;34426;52.180;4.462;2023-01-20T14:52:39;17.00;;;11.25;;